createdAt,value
2017-09-17T00:00:00.216Z,8.53
2017-09-17T00:02:27.815Z,9.90
2017-09-17T00:04:56.254Z,8.63
2017-09-17T00:07:24.948Z,8.90
2017-09-17T00:09:53.179Z,8.70
2017-09-17T00:12:21.691Z,8.80
2017-09-17T00:14:50.143Z,8.90
2017-09-17T00:17:17.745Z,9.27
2017-09-17T00:19:45.818Z,8.83
2017-09-17T00:22:13.406Z,8.67
2017-09-17T00:24:40.974Z,8.83
2017-09-17T00:27:08.591Z,8.67
2017-09-17T00:29:36.166Z,8.40
2017-09-17T00:32:03.766Z,8.13
2017-09-17T00:34:31.398Z,8.80
2017-09-17T00:36:58.998Z,8.83
2017-09-17T00:39:26.581Z,8.67
2017-09-17T00:41:54.175Z,8.23
2017-09-17T00:44:21.766Z,9.10
2017-09-17T00:46:49.392Z,8.57
2017-09-17T00:49:16.995Z,7.97
2017-09-17T00:51:55.153Z,7.83
2017-09-17T00:54:33.470Z,7.97
2017-09-17T00:57:10.060Z,8.47
2017-09-17T00:59:37.731Z,8.03
2017-09-17T01:02:05.308Z,8.23
2017-09-17T01:04:32.895Z,8.40
2017-09-17T01:07:00.523Z,8.07
2017-09-17T01:09:28.154Z,7.93
2017-09-17T01:11:55.730Z,7.83
2017-09-17T01:14:23.419Z,8.13
2017-09-17T01:16:51.015Z,8.40
2017-09-17T01:19:18.642Z,7.90
2017-09-17T01:21:46.314Z,7.87
2017-09-17T01:24:14.747Z,8.30
2017-09-17T01:26:42.362Z,8.10
2017-09-17T01:29:09.979Z,8.20
2017-09-17T01:31:37.579Z,7.20
2017-09-17T01:34:05.179Z,7.67
2017-09-17T01:36:32.803Z,8.63
2017-09-17T01:39:00.438Z,8.00
2017-09-17T01:41:28.007Z,7.30
2017-09-17T01:43:55.639Z,7.40
2017-09-17T01:46:23.235Z,7.57
2017-09-17T01:48:50.827Z,6.90
2017-09-17T01:51:18.446Z,7.50
2017-09-17T01:53:46.014Z,8.23
2017-09-17T01:56:13.586Z,7.43
2017-09-17T01:58:41.202Z,6.97
2017-09-17T02:01:08.778Z,6.93
2017-09-17T02:03:36.511Z,7.27
2017-09-17T02:06:04.138Z,8.40
2017-09-17T02:08:31.702Z,7.93
2017-09-17T02:10:59.266Z,7.43
2017-09-17T02:13:26.860Z,8.23
2017-09-17T02:15:54.451Z,7.60
2017-09-17T02:18:22.095Z,7.33
2017-09-17T02:20:49.930Z,8.03
2017-09-17T02:23:17.758Z,7.23
2017-09-17T02:25:45.330Z,7.13
2017-09-17T02:28:14.250Z,7.20
2017-09-17T02:30:41.845Z,7.40
2017-09-17T02:33:09.412Z,7.37
2017-09-17T02:35:37.207Z,7.17
2017-09-17T02:38:05.543Z,7.53
2017-09-17T02:40:33.139Z,7.07
2017-09-17T02:43:01.767Z,7.30
2017-09-17T02:45:30.088Z,8.00
2017-09-17T02:47:57.691Z,6.70
2017-09-17T02:50:25.842Z,6.97
2017-09-17T02:52:53.407Z,6.70
2017-09-17T02:55:20.971Z,6.83
2017-09-17T02:57:48.562Z,7.90
2017-09-17T03:00:16.163Z,7.43
2017-09-17T03:02:43.751Z,6.97
2017-09-17T03:05:11.350Z,6.50
2017-09-17T03:07:38.938Z,6.87
2017-09-17T03:10:06.534Z,7.13
2017-09-17T03:12:34.202Z,7.33
2017-09-17T03:15:01.814Z,7.37
2017-09-17T03:17:29.381Z,6.93
2017-09-17T03:19:56.998Z,7.33
2017-09-17T03:22:24.594Z,7.27
2017-09-17T03:24:52.163Z,6.40
2017-09-17T03:27:21.078Z,6.80
2017-09-17T03:29:48.636Z,6.67
2017-09-17T03:32:16.222Z,7.07
2017-09-17T03:34:43.854Z,7.20
2017-09-17T03:37:11.466Z,7.00
2017-09-17T03:39:39.066Z,7.10
2017-09-17T03:42:06.766Z,6.70
2017-09-17T03:44:34.359Z,6.20
2017-09-17T03:47:01.926Z,7.03
2017-09-17T03:49:29.533Z,7.37
2017-09-17T03:51:57.095Z,6.57
2017-09-17T03:54:24.657Z,6.60
2017-09-17T03:56:52.310Z,6.80
2017-09-17T03:59:19.878Z,7.00
2017-09-17T04:01:47.467Z,6.63
2017-09-17T04:04:15.538Z,6.97
2017-09-17T04:06:43.131Z,6.50
2017-09-17T04:09:10.707Z,6.83
2017-09-17T04:11:38.298Z,7.20
2017-09-17T04:14:05.886Z,7.03
2017-09-17T04:16:33.482Z,6.10
2017-09-17T04:19:01.118Z,7.07
2017-09-17T04:21:28.710Z,5.90
2017-09-17T04:23:56.302Z,7.00
2017-09-17T04:26:24.368Z,6.73
2017-09-17T04:28:51.935Z,6.50
2017-09-17T04:31:19.539Z,6.17
2017-09-17T04:33:47.176Z,7.07
2017-09-17T04:36:14.742Z,7.30
2017-09-17T04:38:42.350Z,5.87
2017-09-17T04:41:10.729Z,6.17
2017-09-17T04:43:38.294Z,6.03
2017-09-17T04:46:06.647Z,5.77
2017-09-17T04:48:34.270Z,7.10
2017-09-17T04:51:02.066Z,6.07
2017-09-17T04:53:29.626Z,6.40
2017-09-17T04:55:57.222Z,6.20
2017-09-17T04:58:24.812Z,6.87
2017-09-17T05:00:52.386Z,5.90
2017-09-17T05:03:20.454Z,6.70
2017-09-17T05:05:48.017Z,6.20
2017-09-17T05:08:15.574Z,5.80
2017-09-17T05:10:43.831Z,5.73
2017-09-17T05:13:11.423Z,5.50
2017-09-17T05:15:39.051Z,6.30
2017-09-17T05:18:06.767Z,6.13
2017-09-17T05:20:34.362Z,6.00
2017-09-17T05:23:02.667Z,5.73
2017-09-17T05:25:30.278Z,7.37
2017-09-17T05:27:57.854Z,6.13
2017-09-17T05:30:25.470Z,6.10
2017-09-17T05:32:53.126Z,5.90
2017-09-17T05:35:20.700Z,6.03
2017-09-17T05:37:48.331Z,5.83
2017-09-17T05:40:15.930Z,5.33
2017-09-17T05:42:43.527Z,5.30
2017-09-17T05:45:11.106Z,5.83
2017-09-17T05:47:38.910Z,5.90
2017-09-17T05:50:06.474Z,6.03
2017-09-17T05:52:34.082Z,5.10
2017-09-17T05:55:01.674Z,5.67
2017-09-17T05:57:29.298Z,5.83
2017-09-17T05:59:56.874Z,5.97
2017-09-17T06:02:24.462Z,6.00
2017-09-17T06:04:52.026Z,5.37
2017-09-17T06:07:19.617Z,6.33
2017-09-17T06:09:47.241Z,5.63
2017-09-17T06:12:14.826Z,5.43
2017-09-17T06:14:42.418Z,5.53
2017-09-17T06:17:10.014Z,5.93
2017-09-17T06:19:37.604Z,5.33
2017-09-17T06:22:05.174Z,5.47
2017-09-17T06:24:32.762Z,5.20
2017-09-17T06:27:00.591Z,5.57
2017-09-17T06:29:28.158Z,5.53
2017-09-17T06:31:56.954Z,5.37
2017-09-17T06:34:24.519Z,5.47
2017-09-17T06:36:52.111Z,5.40
2017-09-17T06:39:19.714Z,5.40
2017-09-17T06:41:48.046Z,5.30
2017-09-17T06:44:20.682Z,5.50
2017-09-17T06:46:48.358Z,5.23
2017-09-17T06:49:15.950Z,5.33
2017-09-17T06:51:43.558Z,7.63
2017-09-17T06:54:11.150Z,6.77
2017-09-17T06:56:38.730Z,11.30
2017-09-17T06:59:06.339Z,15.17
2017-09-17T07:01:33.942Z,10.67
2017-09-17T07:04:01.531Z,8.53
2017-09-17T07:06:29.110Z,7.70
2017-09-17T07:08:56.703Z,7.87
2017-09-17T07:11:24.298Z,6.70
2017-09-17T07:13:51.884Z,7.40
2017-09-17T07:16:19.610Z,5.70
2017-09-17T07:18:47.206Z,7.30
2017-09-17T07:21:14.806Z,7.97
2017-09-17T07:23:42.962Z,7.10
2017-09-17T07:26:10.535Z,6.50
2017-09-17T07:28:38.099Z,7.10
2017-09-17T07:31:05.730Z,7.47
2017-09-17T07:33:33.330Z,6.37
2017-09-17T07:36:00.931Z,6.40
2017-09-17T07:38:28.530Z,6.73
2017-09-17T07:40:56.118Z,6.77
2017-09-17T07:43:24.543Z,6.37
2017-09-17T07:45:52.167Z,6.70
2017-09-17T07:48:19.747Z,6.67
2017-09-17T07:50:47.318Z,5.10
2017-09-17T07:53:14.914Z,6.20
2017-09-17T07:55:43.023Z,6.23
2017-09-17T07:58:10.598Z,7.30
2017-09-17T08:00:38.994Z,5.70
2017-09-17T08:03:06.586Z,5.90
2017-09-17T08:05:34.178Z,6.47
2017-09-17T08:08:01.803Z,6.20
2017-09-17T08:10:29.588Z,5.87
2017-09-17T08:12:57.159Z,5.90
2017-09-17T08:15:24.759Z,5.90
2017-09-17T08:17:53.266Z,5.50
2017-09-17T08:20:20.830Z,6.20
2017-09-17T08:22:49.245Z,6.13
2017-09-17T08:25:16.818Z,6.10
2017-09-17T08:27:44.718Z,6.50
2017-09-17T08:30:12.494Z,5.80
2017-09-17T08:32:40.067Z,6.10
2017-09-17T08:35:07.666Z,5.30
2017-09-17T08:37:35.259Z,5.30
2017-09-17T08:40:02.855Z,5.97
2017-09-17T08:42:30.450Z,5.80
2017-09-17T08:44:58.071Z,6.03
2017-09-17T08:47:25.663Z,6.00
2017-09-17T08:49:53.272Z,5.47
2017-09-17T08:52:20.927Z,6.70
2017-09-17T08:54:48.507Z,5.63
2017-09-17T08:57:16.075Z,5.57
2017-09-17T08:59:43.711Z,5.43
2017-09-17T09:02:11.355Z,6.10
2017-09-17T09:04:38.918Z,5.17
2017-09-17T09:07:06.514Z,6.07
2017-09-17T09:09:34.083Z,6.13
2017-09-17T09:12:02.534Z,6.10
2017-09-17T09:14:31.271Z,6.00
2017-09-17T09:16:59.446Z,5.17
2017-09-17T09:19:27.055Z,5.20
2017-09-17T09:21:54.718Z,5.80
2017-09-17T09:24:22.334Z,5.77
2017-09-17T09:26:49.902Z,6.30
2017-09-17T09:29:17.530Z,6.20
2017-09-17T09:31:45.124Z,5.53
2017-09-17T09:34:12.695Z,5.60
2017-09-17T09:36:40.338Z,5.80
2017-09-17T09:39:07.911Z,5.53
2017-09-17T09:41:35.516Z,5.57
2017-09-17T09:44:03.127Z,5.97
2017-09-17T09:46:30.699Z,6.20
2017-09-17T09:48:58.266Z,6.00
2017-09-17T09:51:25.860Z,5.50
2017-09-17T09:53:53.463Z,4.80
2017-09-17T09:56:21.034Z,5.80
2017-09-17T09:58:48.642Z,5.27
2017-09-17T10:01:16.231Z,5.43
